Time;durP1;ratioP1;P1;durP2;ratioP2;P2;SDS_P1;SDS_P2;PMS_P1;PMS_P2;Temp;Humidity;BMP_temperature;BMP_pressure;BME280_temperature;BME280_humidity;BME280_pressure;Samples;Min_cycle;Max_cycle;Signal;HPM_P1;HPM_P2
2023/05/31 00:01:07;;;;;;;3.42;2.10;;;;;;;;;;6310240;28;20306;-71
2023/05/31 00:04:12;;;;;;;3.47;2.15;;;;;;;;;;6309035;28;20470;-70
2023/05/31 00:07:18;;;;;;;1.85;1.70;;;;;;;;;;6310182;28;20459;-71
2023/05/31 00:10:23;;;;;;;2.00;2.00;;;;;;;;;;6292062;28;20590;-69
2023/05/31 00:13:28;;;;;;;1.90;1.73;;;;;;;;;;6308826;28;20306;-71
2023/05/31 00:16:35;;;;;;;2.08;1.73;;;;;;;;;;6309412;28;20455;-70
2023/05/31 00:19:44;;;;;;;3.83;1.77;;;;;;;;;;6309335;28;20294;-71
2023/05/31 00:22:49;;;;;;;4.63;1.83;;;;;;;;;;6308566;28;20310;-71
2023/05/31 00:25:54;;;;;;;2.65;1.80;;;;;;;;;;6309610;28;20290;-71
2023/05/31 00:28:59;;;;;;;4.90;1.80;;;;;;;;;;6309084;28;20299;-71
2023/05/31 00:32:07;;;;;;;2.35;2.22;;;;;;;;;;6291762;28;20303;-69
2023/05/31 00:35:12;;;;;;;2.78;1.70;;;;;;;;;;6309271;28;20476;-70
2023/05/31 00:38:20;;;;;;;1.80;1.70;;;;;;;;;;6291337;28;20290;-69
2023/05/31 00:41:26;;;;;;;2.15;1.85;;;;;;;;;;6309879;28;20302;-69
2023/05/31 00:44:31;;;;;;;2.70;1.98;;;;;;;;;;6291443;28;20302;-69
2023/05/31 00:47:38;;;;;;;8.35;2.30;;;;;;;;;;6309630;28;20294;-70
2023/05/31 00:50:43;;;;;;;4.20;1.98;;;;;;;;;;6290602;28;20290;-70
2023/05/31 00:53:48;;;;;;;6.18;1.73;;;;;;;;;;6290386;28;20294;-70
2023/05/31 00:56:54;;;;;;;2.67;2.10;;;;;;;;;;6309183;28;20294;-69
2023/05/31 01:00:00;;;;;;;1.90;1.63;;;;;;;;;;6290960;28;20298;-70
2023/05/31 01:03:08;;;;;;;2.60;1.75;;;;;;;;;;6339982;22;20475;-71
2023/05/31 01:06:14;;;;;;;2.13;1.90;;;;;;;;;;6338752;28;20281;-72
2023/05/31 01:09:20;;;;;;;2.53;1.98;;;;;;;;;;6325744;28;20289;-72
2023/05/31 01:12:30;;;;;;;1.73;1.70;;;;;;;;;;6338190;28;20293;-72
2023/05/31 01:15:39;;;;;;;1.75;1.75;;;;;;;;;;6338263;28;20288;-72
2023/05/31 01:18:46;;;;;;;6.53;2.20;;;;;;;;;;6337951;28;20289;-72
2023/05/31 01:22:02;;;;;;;2.58;1.77;;;;;;;;;;6327377;28;20470;-71
2023/05/31 01:25:21;;;;;;;3.53;1.80;;;;;;;;;;6319506;28;20542;-71
2023/05/31 01:28:28;;;;;;;7.18;2.00;;;;;;;;;;6337639;28;20487;-71
2023/05/31 01:31:36;;;;;;;3.80;1.92;;;;;;;;;;6319021;28;20523;-72
2023/05/31 01:34:45;;;;;;;5.72;2.08;;;;;;;;;;6339304;28;20286;-71
2023/05/31 01:37:50;;;;;;;3.28;2.03;;;;;;;;;;6338128;28;20283;-71
2023/05/31 01:40:58;;;;;;;5.00;1.77;;;;;;;;;;6338035;28;20526;-71
2023/05/31 01:44:05;;;;;;;6.97;2.13;;;;;;;;;;6337128;28;20301;-71
2023/05/31 01:47:14;;;;;;;5.10;1.83;;;;;;;;;;6336663;28;20341;-71
2023/05/31 01:50:20;;;;;;;1.40;1.40;;;;;;;;;;6337182;28;20342;-73
2023/05/31 01:53:25;;;;;;;1.95;1.50;;;;;;;;;;6335703;28;20298;-72
2023/05/31 01:56:32;;;;;;;2.50;1.60;;;;;;;;;;6336316;28;20298;-71
2023/05/31 01:59:40;;;;;;;2.30;2.05;;;;;;;;;;6337190;28;20297;-71
2023/05/31 02:02:46;;;;;;;4.93;1.67;;;;;;;;;;6335231;28;20316;-73
2023/05/31 02:05:58;;;;;;;5.47;1.50;;;;;;;;;;6335614;28;20289;-71
2023/05/31 02:09:03;;;;;;;2.63;2.05;;;;;;;;;;6335240;28;20290;-72
2023/05/31 02:12:10;;;;;;;2.90;1.63;;;;;;;;;;6334566;28;20297;-71
2023/05/31 02:15:19;;;;;;;2.38;1.40;;;;;;;;;;6317147;28;20289;-71
2023/05/31 02:18:26;;;;;;;1.60;1.50;;;;;;;;;;6336030;28;20593;-72
2023/05/31 02:21:35;;;;;;;1.48;1.48;;;;;;;;;;6318665;28;20286;-71
2023/05/31 02:24:40;;;;;;;4.35;1.30;;;;;;;;;;6334649;28;20293;-71
2023/05/31 02:27:48;;;;;;;1.58;1.48;;;;;;;;;;6317915;28;20289;-71
2023/05/31 02:30:58;;;;;;;1.45;1.35;;;;;;;;;;6336207;28;20418;-72
2023/05/31 02:34:04;;;;;;;1.95;1.67;;;;;;;;;;6318116;28;20290;-71
2023/05/31 02:37:10;;;;;;;2.13;2.03;;;;;;;;;;6318091;28;20297;-72
2023/05/31 02:40:15;;;;;;;2.90;2.10;;;;;;;;;;6335785;28;20302;-72
2023/05/31 02:43:20;;;;;;;2.22;2.20;;;;;;;;;;6317636;28;20293;-72
2023/05/31 02:46:27;;;;;;;1.77;1.70;;;;;;;;;;6339498;28;20558;-73
2023/05/31 02:49:32;;;;;;;1.77;1.50;;;;;;;;;;6334811;28;20285;-71
2023/05/31 02:52:37;;;;;;;4.97;1.63;;;;;;;;;;6318136;28;20289;-71
2023/05/31 02:55:51;;;;;;;1.50;1.50;;;;;;;;;;6317269;28;20313;-71
2023/05/31 02:58:57;;;;;;;2.50;1.80;;;;;;;;;;6335319;28;20447;-71
2023/05/31 03:02:32;;;;;;;1.40;1.30;;;;;;;;;;6313395;28;20419;-72
2023/05/31 03:06:01;;;;;;;2.05;1.65;;;;;;;;;;6326098;28;20301;-71
2023/05/31 03:09:08;;;;;;;1.88;1.77;;;;;;;;;;6321657;28;20298;-71
2023/05/31 03:12:14;;;;;;;1.70;1.27;;;;;;;;;;6318292;28;20285;-70
2023/05/31 03:15:21;;;;;;;1.98;1.70;;;;;;;;;;6317050;28;20455;-73
2023/05/31 03:18:27;;;;;;;3.40;1.50;;;;;;;;;;6317402;28;20337;-71
2023/05/31 03:21:34;;;;;;;1.45;1.20;;;;;;;;;;6325604;28;20297;-71
2023/05/31 03:24:40;;;;;;;1.48;1.20;;;;;;;;;;6332764;28;20313;-71
2023/05/31 03:27:45;;;;;;;1.65;1.30;;;;;;;;;;6334038;28;20290;-70
2023/05/31 03:30:50;;;;;;;3.83;1.50;;;;;;;;;;6334775;28;20609;-71
2023/05/31 03:33:57;;;;;;;1.38;1.30;;;;;;;;;;6333338;28;20294;-71
2023/05/31 03:37:04;;;;;;;4.05;1.27;;;;;;;;;;6333778;28;20298;-72
2023/05/31 03:40:25;;;;;;;1.45;1.23;;;;;;;;;;6332981;28;20297;-71
2023/05/31 03:43:30;;;;;;;6.32;1.52;;;;;;;;;;6332061;28;20289;-71
2023/05/31 03:46:36;;;;;;;3.50;1.20;;;;;;;;;;6333237;28;20296;-72
2023/05/31 03:49:42;;;;;;;2.60;1.40;;;;;;;;;;6332830;28;20290;-71
2023/05/31 03:52:48;;;;;;;3.10;1.20;;;;;;;;;;6333616;28;20289;-71
2023/05/31 03:55:53;;;;;;;4.57;1.20;;;;;;;;;;6335589;28;20297;-72
2023/05/31 03:58:59;;;;;;;1.55;1.20;;;;;;;;;;6335711;28;20337;-72
2023/05/31 04:02:05;;;;;;;1.15;1.10;;;;;;;;;;6333460;28;20313;-71
2023/05/31 04:05:13;;;;;;;1.20;1.20;;;;;;;;;;6332513;28;20400;-71
2023/05/31 04:08:19;;;;;;;1.17;1.17;;;;;;;;;;6334834;28;20301;-72
2023/05/31 04:11:25;;;;;;;4.78;1.63;;;;;;;;;;6334311;28;20281;-71
2023/05/31 04:14:31;;;;;;;13.52;2.30;;;;;;;;;;6333035;28;20313;-72
2023/05/31 04:17:39;;;;;;;1.48;1.08;;;;;;;;;;6333241;28;20289;-71
2023/05/31 04:20:46;;;;;;;1.10;1.10;;;;;;;;;;6332732;28;20306;-71
2023/05/31 04:23:52;;;;;;;1.00;1.00;;;;;;;;;;6334274;28;20297;-71
2023/05/31 04:26:57;;;;;;;11.43;1.42;;;;;;;;;;6333886;28;20293;-71
2023/05/31 04:30:05;;;;;;;1.80;1.10;;;;;;;;;;6333670;28;20590;-71
2023/05/31 04:33:17;;;;;;;3.38;0.98;;;;;;;;;;6335022;28;20312;-71
2023/05/31 04:36:24;;;;;;;0.80;0.80;;;;;;;;;;6334070;28;20467;-73
2023/05/31 04:39:31;;;;;;;0.90;0.90;;;;;;;;;;6335107;28;20527;-70
2023/05/31 04:42:38;;;;;;;1.10;1.10;;;;;;;;;;6335645;28;20289;-71
2023/05/31 04:45:51;;;;;;;1.20;1.20;;;;;;;;;;6335016;28;20314;-72
2023/05/31 04:48:57;;;;;;;1.08;1.08;;;;;;;;;;6334445;28;20294;-73
2023/05/31 04:52:04;;;;;;;1.80;1.70;;;;;;;;;;6336677;28;20285;-72
2023/05/31 04:55:10;;;;;;;3.92;1.30;;;;;;;;;;6335191;28;20297;-73
2023/05/31 04:58:16;;;;;;;1.50;1.20;;;;;;;;;;6336683;28;20281;-71
2023/05/31 05:01:22;;;;;;;0.80;0.80;;;;;;;;;;6335886;28;20298;-71
2023/05/31 05:04:44;;;;;;;4.15;0.90;;;;;;;;;;6332196;28;20294;-71
2023/05/31 05:07:51;;;;;;;4.18;1.20;;;;;;;;;;6335006;28;20297;-72
2023/05/31 05:10:57;;;;;;;3.80;1.00;;;;;;;;;;6333263;28;20293;-71
2023/05/31 05:14:03;;;;;;;1.30;1.20;;;;;;;;;;6307429;28;20302;-71
2023/05/31 05:17:11;;;;;;;2.92;1.08;;;;;;;;;;6307534;28;20251;-71
2023/05/31 05:20:18;;;;;;;3.00;1.50;;;;;;;;;;6306826;28;20309;-71
2023/05/31 05:23:28;;;;;;;5.28;1.20;;;;;;;;;;6307150;28;20436;-71
2023/05/31 05:26:34;;;;;;;0.93;0.93;;;;;;;;;;6306503;28;20306;-72
2023/05/31 05:29:42;;;;;;;1.10;1.10;;;;;;;;;;6306269;28;20305;-71
2023/05/31 05:32:47;;;;;;;6.70;1.25;;;;;;;;;;6306946;28;20286;-71
2023/05/31 05:35:52;;;;;;;3.55;1.20;;;;;;;;;;6306778;28;20294;-72
2023/05/31 05:39:03;;;;;;;5.05;1.15;;;;;;;;;;6306300;28;20594;-73
2023/05/31 05:42:11;;;;;;;2.78;1.27;;;;;;;;;;6306392;28;20294;-71
2023/05/31 05:45:17;;;;;;;4.07;1.17;;;;;;;;;;6305949;28;20495;-72
2023/05/31 05:48:23;;;;;;;1.15;1.15;;;;;;;;;;6308493;28;20286;-72
2023/05/31 05:51:28;;;;;;;1.45;1.27;;;;;;;;;;6310798;28;20560;-72
2023/05/31 05:54:38;;;;;;;6.13;1.40;;;;;;;;;;6310336;28;20294;-72
2023/05/31 05:57:45;;;;;;;3.38;1.60;;;;;;;;;;6311501;28;20294;-73
2023/05/31 06:01:04;;;;;;;3.67;1.42;;;;;;;;;;6309900;28;20295;-71
2023/05/31 06:04:13;;;;;;;3.30;1.30;;;;;;;;;;6299033;28;20336;-72
2023/05/31 06:07:21;;;;;;;2.20;1.10;;;;;;;;;;6269810;28;20295;-71
2023/05/31 06:10:29;;;;;;;2.60;1.20;;;;;;;;;;6284900;28;20310;-73
2023/05/31 06:13:35;;;;;;;1.15;1.10;;;;;;;;;;6311415;28;20263;-71
2023/05/31 06:16:42;;;;;;;2.33;1.40;;;;;;;;;;6310302;28;20385;-72
2023/05/31 06:19:49;;;;;;;1.25;1.15;;;;;;;;;;6311744;28;20469;-71
2023/05/31 06:22:56;;;;;;;1.10;1.10;;;;;;;;;;6310648;28;20575;-72
2023/05/31 06:26:03;;;;;;;10.40;1.40;;;;;;;;;;6327039;28;20462;-72
2023/05/31 06:29:08;;;;;;;1.92;1.17;;;;;;;;;;6311089;28;20310;-72
2023/05/31 06:32:46;;;;;;;4.55;1.30;;;;;;;;;;6302577;28;20294;-72
2023/05/31 06:35:58;;;;;;;4.40;1.20;;;;;;;;;;6326955;28;20542;-72
2023/05/31 06:39:04;;;;;;;6.50;1.15;;;;;;;;;;6326674;28;20315;-71
2023/05/31 06:42:13;;;;;;;1.58;0.95;;;;;;;;;;6310284;28;20290;-71
2023/05/31 06:45:25;;;;;;;3.08;1.10;;;;;;;;;;6311194;28;20310;-73
2023/05/31 06:48:31;;;;;;;7.47;1.30;;;;;;;;;;6311626;28;20291;-72
2023/05/31 06:52:07;;;;;;;3.92;1.00;;;;;;;;;;6301083;28;20286;-71
2023/05/31 06:55:50;;;;;;;1.77;1.38;;;;;;;;;;6208775;28;20301;-72
2023/05/31 06:59:00;;;;;;;2.40;1.10;;;;;;;;;;6193477;28;20292;-72
2023/05/31 07:02:07;;;;;;;1.10;1.08;;;;;;;;;;6326672;28;20302;-71
2023/05/31 07:05:14;;;;;;;3.40;1.10;;;;;;;;;;6334757;28;20325;-71
2023/05/31 07:08:20;;;;;;;2.78;1.10;;;;;;;;;;6343459;28;20393;-72
2023/05/31 07:11:45;;;;;;;6.47;1.00;;;;;;;;;;6307346;28;20294;-71
2023/05/31 07:14:54;;;;;;;1.35;0.95;;;;;;;;;;6309154;28;20290;-73
2023/05/31 07:18:00;;;;;;;1.58;0.82;;;;;;;;;;6309527;28;20290;-72
2023/05/31 07:21:08;;;;;;;1.35;1.20;;;;;;;;;;6308960;28;20574;-72
2023/05/31 07:24:15;;;;;;;4.20;1.10;;;;;;;;;;6310406;28;20287;-72
2023/05/31 07:27:21;;;;;;;0.95;0.93;;;;;;;;;;6310323;28;20298;-72
2023/05/31 07:30:28;;;;;;;2.13;1.02;;;;;;;;;;6312716;28;20286;-75
2023/05/31 07:33:33;;;;;;;1.20;1.20;;;;;;;;;;6310405;28;20299;-71
2023/05/31 07:36:40;;;;;;;1.10;1.10;;;;;;;;;;6309947;28;20303;-72
2023/05/31 07:39:47;;;;;;;2.53;1.10;;;;;;;;;;6308686;28;20295;-73
2023/05/31 07:42:52;;;;;;;3.50;1.20;;;;;;;;;;6310690;28;20286;-75
2023/05/31 07:45:58;;;;;;;1.85;0.98;;;;;;;;;;6310040;28;20318;-74
2023/05/31 07:49:04;;;;;;;3.83;1.60;;;;;;;;;;6310041;28;20313;-74
2023/05/31 07:52:10;;;;;;;1.00;1.00;;;;;;;;;;6310271;28;20298;-73
2023/05/31 07:55:16;;;;;;;1.00;1.00;;;;;;;;;;6309474;28;20481;-73
2023/05/31 07:58:21;;;;;;;0.90;0.90;;;;;;;;;;6310414;28;20286;-73
2023/05/31 08:01:28;;;;;;;1.05;1.02;;;;;;;;;;6309504;28;20310;-74
2023/05/31 08:04:33;;;;;;;6.55;1.30;;;;;;;;;;6332402;28;20580;-75
2023/05/31 08:07:38;;;;;;;1.95;1.13;;;;;;;;;;6342301;28;20286;-75
2023/05/31 08:10:44;;;;;;;1.00;1.00;;;;;;;;;;6358826;28;20321;-73
2023/05/31 08:13:49;;;;;;;1.10;1.10;;;;;;;;;;6358336;28;20293;-73
2023/05/31 08:16:56;;;;;;;1.25;1.25;;;;;;;;;;6341277;28;20289;-72
2023/05/31 08:20:03;;;;;;;1.00;1.00;;;;;;;;;;6360006;28;20293;-73
2023/05/31 08:23:08;;;;;;;3.83;1.20;;;;;;;;;;6359749;28;20292;-71
2023/05/31 08:26:14;;;;;;;1.33;0.93;;;;;;;;;;6359068;28;20348;-73
2023/05/31 08:29:20;;;;;;;1.70;1.00;;;;;;;;;;6358732;28;20288;-72
2023/05/31 08:32:27;;;;;;;1.05;1.00;;;;;;;;;;6359857;28;20292;-72
2023/05/31 08:35:32;;;;;;;1.75;1.00;;;;;;;;;;6358740;28;20297;-73
2023/05/31 08:38:37;;;;;;;1.23;1.10;;;;;;;;;;6359175;28;20429;-72
2023/05/31 08:41:50;;;;;;;2.63;1.00;;;;;;;;;;6361076;28;20288;-72
2023/05/31 08:44:57;;;;;;;4.00;1.30;;;;;;;;;;6358715;28;20369;-73
2023/05/31 08:48:07;;;;;;;1.00;1.00;;;;;;;;;;6359477;28;20292;-73
2023/05/31 08:51:14;;;;;;;1.77;1.10;;;;;;;;;;6358336;28;20312;-72
2023/05/31 08:54:20;;;;;;;1.23;1.13;;;;;;;;;;6358888;28;20292;-72
2023/05/31 08:57:26;;;;;;;1.05;1.05;;;;;;;;;;6357923;28;20292;-72
2023/05/31 09:00:32;;;;;;;0.90;0.90;;;;;;;;;;6358686;28;20376;-72
2023/05/31 09:03:39;;;;;;;1.35;1.00;;;;;;;;;;6359004;28;20464;-72
2023/05/31 09:06:45;;;;;;;1.88;1.40;;;;;;;;;;6358899;28;20290;-72
2023/05/31 09:09:50;;;;;;;3.10;1.23;;;;;;;;;;6357648;28;20304;-71
2023/05/31 09:12:56;;;;;;;5.50;1.60;;;;;;;;;;6344216;28;20582;-72
2023/05/31 09:16:02;;;;;;;2.45;2.10;;;;;;;;;;6358318;28;20292;-72
2023/05/31 09:19:09;;;;;;;1.50;1.40;;;;;;;;;;6358300;27;20380;-72
2023/05/31 09:22:16;;;;;;;2.17;1.13;;;;;;;;;;6359386;28;20288;-72
2023/05/31 09:25:22;;;;;;;2.67;1.02;;;;;;;;;;6345220;28;20317;-73
2023/05/31 09:28:27;;;;;;;3.47;1.00;;;;;;;;;;6362877;28;20288;-72
2023/05/31 09:31:32;;;;;;;2.92;1.17;;;;;;;;;;6363566;28;20274;-73
2023/05/31 09:34:41;;;;;;;3.90;1.25;;;;;;;;;;6363017;27;20288;-72
2023/05/31 09:37:49;;;;;;;2.33;1.20;;;;;;;;;;6363759;28;20562;-72
2023/05/31 09:40:55;;;;;;;2.08;1.20;;;;;;;;;;6362518;27;20300;-73
2023/05/31 09:44:01;;;;;;;2.03;1.27;;;;;;;;;;6362827;28;20574;-72
2023/05/31 09:47:09;;;;;;;1.30;1.30;;;;;;;;;;6363028;28;20286;-72
2023/05/31 09:50:19;;;;;;;3.05;1.33;;;;;;;;;;6362831;27;20289;-72
2023/05/31 09:53:25;;;;;;;3.22;1.45;;;;;;;;;;6365436;28;20285;-72
2023/05/31 09:56:31;;;;;;;1.23;1.02;;;;;;;;;;6363402;27;20293;-72
2023/05/31 09:59:36;;;;;;;1.98;1.40;;;;;;;;;;6344504;28;20297;-72
2023/05/31 10:02:42;;;;;;;4.95;1.60;;;;;;;;;;6362559;27;20298;-72
2023/05/31 10:05:49;;;;;;;2.28;1.17;;;;;;;;;;6362355;28;20289;-72
2023/05/31 10:08:54;;;;;;;3.28;1.50;;;;;;;;;;6361741;28;20300;-73
2023/05/31 10:12:02;;;;;;;3.92;1.83;;;;;;;;;;6340927;28;20473;-72
2023/05/31 10:15:10;;;;;;;4.20;1.92;;;;;;;;;;6361891;28;20301;-73
2023/05/31 10:18:17;;;;;;;2.88;1.27;;;;;;;;;;6362055;28;20289;-72
2023/05/31 10:21:26;;;;;;;5.43;1.10;;;;;;;;;;6362092;28;20297;-72
2023/05/31 10:24:40;;;;;;;1.30;1.30;;;;;;;;;;6361084;28;20301;-73
2023/05/31 10:27:46;;;;;;;3.42;1.50;;;;;;;;;;6361865;28;20294;-72
2023/05/31 10:30:53;;;;;;;4.70;1.83;;;;;;;;;;6343221;28;20285;-71
2023/05/31 10:34:03;;;;;;;27.95;3.72;;;;;;;;;;6360975;28;20304;-71
2023/05/31 10:37:12;;;;;;;5.80;1.70;;;;;;;;;;6361207;28;20294;-72
2023/05/31 10:40:19;;;;;;;6.35;1.52;;;;;;;;;;6360175;28;20336;-71
2023/05/31 10:43:31;;;;;;;2.05;1.40;;;;;;;;;;6360828;28;20293;-71
2023/05/31 10:46:37;;;;;;;7.25;1.40;;;;;;;;;;6360539;28;20269;-72
2023/05/31 10:49:44;;;;;;;4.93;1.63;;;;;;;;;;6360717;28;20305;-73
2023/05/31 10:52:54;;;;;;;7.57;1.80;;;;;;;;;;6362074;28;20285;-72
2023/05/31 10:56:07;;;;;;;1.40;1.40;;;;;;;;;;6360914;28;20424;-72
2023/05/31 10:59:19;;;;;;;4.45;1.70;;;;;;;;;;6360644;28;20289;-72
2023/05/31 11:02:25;;;;;;;2.05;1.80;;;;;;;;;;6362084;28;20305;-71
2023/05/31 11:05:30;;;;;;;1.60;1.60;;;;;;;;;;6361175;28;20300;-71
2023/05/31 11:08:37;;;;;;;3.95;1.30;;;;;;;;;;6360600;28;20301;-72
2023/05/31 11:11:47;;;;;;;3.90;1.40;;;;;;;;;;6357632;28;20293;-72
2023/05/31 11:15:01;;;;;;;2.80;1.42;;;;;;;;;;6360189;28;20569;-72
2023/05/31 11:18:09;;;;;;;14.02;1.92;;;;;;;;;;6360287;28;20293;-72
2023/05/31 11:21:46;;;;;;;4.93;1.48;;;;;;;;;;6360527;28;20469;-72
2023/05/31 11:24:53;;;;;;;1.60;1.50;;;;;;;;;;6360237;28;20610;-72
2023/05/31 11:28:07;;;;;;;5.95;1.67;;;;;;;;;;6360749;28;20322;-72
2023/05/31 11:31:16;;;;;;;3.83;2.00;;;;;;;;;;6359657;28;20565;-72
2023/05/31 11:34:23;;;;;;;1.27;1.27;;;;;;;;;;6360164;28;20284;-71
2023/05/31 11:37:30;;;;;;;3.60;1.60;;;;;;;;;;6359445;28;20281;-72
2023/05/31 11:40:37;;;;;;;4.00;1.73;;;;;;;;;;6360163;28;20293;-71
2023/05/31 11:43:42;;;;;;;1.20;1.20;;;;;;;;;;6359882;28;20293;-72
2023/05/31 11:47:07;;;;;;;4.05;1.77;;;;;;;;;;6359898;28;20285;-72
2023/05/31 11:50:16;;;;;;;3.17;1.50;;;;;;;;;;6341896;28;20289;-72
2023/05/31 11:53:21;;;;;;;2.50;1.20;;;;;;;;;;6359608;28;20481;-72
2023/05/31 11:56:33;;;;;;;2.88;1.38;;;;;;;;;;6360073;28;20288;-72
2023/05/31 11:59:39;;;;;;;8.82;1.98;;;;;;;;;;6359995;28;20309;-72
2023/05/31 12:02:45;;;;;;;4.50;1.50;;;;;;;;;;6341654;28;20345;-74
2023/05/31 12:05:58;;;;;;;6.93;1.50;;;;;;;;;;6358975;28;20297;-71
2023/05/31 12:09:04;;;;;;;3.47;1.20;;;;;;;;;;6359015;28;20377;-72
2023/05/31 12:12:13;;;;;;;4.55;2.88;;;;;;;;;;6356492;28;20545;-71
2023/05/31 12:15:19;;;;;;;5.50;1.73;;;;;;;;;;6360182;28;20372;-72
2023/05/31 12:18:24;;;;;;;1.92;1.85;;;;;;;;;;6359388;28;20288;-73
2023/05/31 12:21:29;;;;;;;7.68;1.63;;;;;;;;;;6341046;28;20546;-72
2023/05/31 12:24:35;;;;;;;5.18;1.58;;;;;;;;;;6359098;28;20293;-73
2023/05/31 12:27:42;;;;;;;8.77;1.65;;;;;;;;;;6359685;28;20285;-73
2023/05/31 12:30:51;;;;;;;3.53;1.52;;;;;;;;;;6358612;28;20558;-73
2023/05/31 12:34:01;;;;;;;5.45;1.70;;;;;;;;;;6358948;28;20293;-73
2023/05/31 12:37:07;;;;;;;3.05;1.20;;;;;;;;;;6341369;28;20284;-74
2023/05/31 12:40:15;;;;;;;1.48;1.38;;;;;;;;;;6358491;28;20538;-74
2023/05/31 12:43:22;;;;;;;7.53;1.67;;;;;;;;;;6358797;28;20296;-74
2023/05/31 12:46:27;;;;;;;1.75;1.25;;;;;;;;;;6358707;28;20284;-72
2023/05/31 12:49:35;;;;;;;7.55;1.60;;;;;;;;;;6358511;28;20296;-74
2023/05/31 12:52:40;;;;;;;5.55;1.27;;;;;;;;;;6358588;28;20323;-71
2023/05/31 12:55:47;;;;;;;1.45;1.27;;;;;;;;;;6357107;28;20326;-73
2023/05/31 12:58:54;;;;;;;2.03;1.15;;;;;;;;;;6357873;28;20451;-71
2023/05/31 13:02:00;;;;;;;5.38;1.58;;;;;;;;;;6358637;28;20289;-75
2023/05/31 13:05:06;;;;;;;6.50;1.30;;;;;;;;;;6357781;28;20306;-73
2023/05/31 13:08:13;;;;;;;1.00;1.00;;;;;;;;;;6358078;28;20297;-72
2023/05/31 13:11:18;;;;;;;5.85;1.30;;;;;;;;;;6355268;28;20376;-71
2023/05/31 13:14:25;;;;;;;2.58;1.00;;;;;;;;;;6357565;28;20293;-72
2023/05/31 13:17:30;;;;;;;2.15;0.95;;;;;;;;;;6358683;28;20285;-71
2023/05/31 13:20:35;;;;;;;2.08;1.10;;;;;;;;;;6358078;28;20576;-70
2023/05/31 13:23:41;;;;;;;5.45;1.40;;;;;;;;;;6358087;28;20312;-70
2023/05/31 13:26:46;;;;;;;1.60;1.00;;;;;;;;;;6360338;28;20301;-72
2023/05/31 13:29:53;;;;;;;8.00;1.00;;;;;;;;;;6357882;28;20610;-73
2023/05/31 13:32:58;;;;;;;3.28;1.10;;;;;;;;;;6340150;28;20431;-72
2023/05/31 13:36:04;;;;;;;7.20;1.50;;;;;;;;;;6357310;28;20284;-71
2023/05/31 13:39:14;;;;;;;2.90;0.85;;;;;;;;;;6357820;28;20297;-71
2023/05/31 13:42:20;;;;;;;5.38;1.20;;;;;;;;;;6358093;28;20285;-71
2023/05/31 13:45:26;;;;;;;1.55;1.10;;;;;;;;;;6357259;28;20353;-72
2023/05/31 13:48:32;;;;;;;5.35;1.30;;;;;;;;;;6357701;28;20289;-71
2023/05/31 13:51:37;;;;;;;3.53;1.17;;;;;;;;;;6358251;28;20483;-71
2023/05/31 13:54:42;;;;;;;0.98;0.98;;;;;;;;;;6357685;28;20333;-71
2023/05/31 13:57:48;;;;;;;1.38;1.08;;;;;;;;;;6357732;28;20590;-71
2023/05/31 14:00:55;;;;;;;1.48;1.08;;;;;;;;;;6357798;28;20304;-71
2023/05/31 14:04:01;;;;;;;5.93;1.10;;;;;;;;;;6357190;28;20301;-71
2023/05/31 14:07:07;;;;;;;1.90;1.30;;;;;;;;;;6358026;28;20293;-72
2023/05/31 14:10:12;;;;;;;2.83;1.05;;;;;;;;;;6360008;28;20292;-72
2023/05/31 14:13:18;;;;;;;7.18;1.33;;;;;;;;;;6342644;28;20370;-72
2023/05/31 14:16:24;;;;;;;3.38;1.30;;;;;;;;;;6336941;28;20294;-72
2023/05/31 14:19:29;;;;;;;5.97;1.20;;;;;;;;;;6335810;28;20484;-70
2023/05/31 14:22:35;;;;;;;4.03;0.90;;;;;;;;;;6336196;28;20262;-74
2023/05/31 14:25:40;;;;;;;4.32;1.13;;;;;;;;;;6336480;28;20289;-72
2023/05/31 14:28:45;;;;;;;17.98;1.88;;;;;;;;;;6336087;28;20590;-73
2023/05/31 14:31:52;;;;;;;2.78;1.17;;;;;;;;;;6336931;28;20289;-73
2023/05/31 14:34:57;;;;;;;4.13;1.50;;;;;;;;;;6336049;28;20325;-72
2023/05/31 14:38:02;;;;;;;6.25;1.20;;;;;;;;;;6335557;28;20290;-73
2023/05/31 14:41:27;;;;;;;1.23;1.13;;;;;;;;;;6335027;28;20305;-71
2023/05/31 14:44:32;;;;;;;2.80;1.50;;;;;;;;;;6334484;28;20314;-71
2023/05/31 14:47:38;;;;;;;3.28;1.38;;;;;;;;;;6334827;28;20593;-71
2023/05/31 14:50:47;;;;;;;9.32;1.40;;;;;;;;;;6335883;28;20324;-72
2023/05/31 14:53:52;;;;;;;4.72;1.20;;;;;;;;;;6317358;28;20293;-71
2023/05/31 14:56:59;;;;;;;4.50;1.10;;;;;;;;;;6334393;28;20289;-73
2023/05/31 15:00:05;;;;;;;2.58;1.30;;;;;;;;;;6335435;28;20550;-72
2023/05/31 15:03:12;;;;;;;8.02;1.50;;;;;;;;;;6334882;28;20341;-72
2023/05/31 15:06:17;;;;;;;11.27;1.58;;;;;;;;;;6334481;28;20293;-72
2023/05/31 15:09:23;;;;;;;16.70;1.58;;;;;;;;;;6335069;28;20317;-71
2023/05/31 15:12:28;;;;;;;15.82;1.52;;;;;;;;;;6338855;28;20294;-71
2023/05/31 15:15:33;;;;;;;7.15;1.50;;;;;;;;;;6335318;28;20293;-71
2023/05/31 15:18:40;;;;;;;3.65;1.30;;;;;;;;;;6334916;28;20480;-72
2023/05/31 15:21:45;;;;;;;9.50;1.40;;;;;;;;;;6334752;28;20294;-71
2023/05/31 15:24:50;;;;;;;13.10;2.15;;;;;;;;;;6334180;28;20289;-72
2023/05/31 15:27:55;;;;;;;2.67;1.30;;;;;;;;;;6335528;28;20289;-71
2023/05/31 15:31:02;;;;;;;3.17;1.50;;;;;;;;;;6334952;28;20298;-72
2023/05/31 15:34:09;;;;;;;3.80;1.27;;;;;;;;;;6334936;28;20366;-72
2023/05/31 15:37:15;;;;;;;6.50;1.20;;;;;;;;;;6334874;28;20297;-71
2023/05/31 15:40:20;;;;;;;6.75;1.30;;;;;;;;;;6334560;28;20309;-72
2023/05/31 15:43:26;;;;;;;8.68;1.17;;;;;;;;;;6334147;28;20442;-72
2023/05/31 15:46:31;;;;;;;7.68;1.17;;;;;;;;;;6335089;28;20274;-71
2023/05/31 15:49:38;;;;;;;9.18;1.75;;;;;;;;;;6333491;28;20313;-71
2023/05/31 15:52:43;;;;;;;2.05;1.40;;;;;;;;;;6333340;28;20302;-73
2023/05/31 15:55:48;;;;;;;2.80;1.30;;;;;;;;;;6334660;28;20294;-72
2023/05/31 15:58:54;;;;;;;1.52;1.05;;;;;;;;;;6334913;28;20452;-71
2023/05/31 16:01:59;;;;;;;5.22;0.90;;;;;;;;;;6334567;28;20482;-72
2023/05/31 16:05:07;;;;;;;5.80;1.23;;;;;;;;;;6333671;28;20293;-71
2023/05/31 16:08:12;;;;;;;6.45;1.25;;;;;;;;;;6333656;28;20385;-72
2023/05/31 16:11:18;;;;;;;6.82;1.10;;;;;;;;;;6328694;28;20314;-72
2023/05/31 16:14:23;;;;;;;2.22;1.10;;;;;;;;;;6309144;28;20290;-71
2023/05/31 16:17:29;;;;;;;5.93;1.20;;;;;;;;;;6308951;28;20298;-72
2023/05/31 16:20:36;;;;;;;6.85;1.30;;;;;;;;;;6308547;28;20589;-71
2023/05/31 16:23:41;;;;;;;2.88;1.20;;;;;;;;;;6308250;28;20311;-71
2023/05/31 16:26:50;;;;;;;6.45;0.95;;;;;;;;;;6309333;28;20295;-71
2023/05/31 16:29:55;;;;;;;1.08;1.08;;;;;;;;;;6308918;28;20290;-71
2023/05/31 16:33:00;;;;;;;7.78;1.27;;;;;;;;;;6308294;28;20294;-73
2023/05/31 16:36:07;;;;;;;1.00;1.00;;;;;;;;;;6308391;28;20294;-72
2023/05/31 16:39:14;;;;;;;2.83;1.20;;;;;;;;;;6308201;28;20579;-72
2023/05/31 16:42:19;;;;;;;2.80;1.00;;;;;;;;;;6308935;28;20294;-72
2023/05/31 16:45:25;;;;;;;7.03;1.20;;;;;;;;;;6308487;28;20455;-72
2023/05/31 16:48:30;;;;;;;6.28;1.10;;;;;;;;;;6333028;28;20245;-71
2023/05/31 16:51:37;;;;;;;2.05;0.70;;;;;;;;;;6333156;28;20293;-71
2023/05/31 16:54:42;;;;;;;1.50;0.90;;;;;;;;;;6333062;28;20297;-71
2023/05/31 16:57:47;;;;;;;1.63;1.52;;;;;;;;;;6334769;28;20481;-71
2023/05/31 17:00:52;;;;;;;1.48;0.80;;;;;;;;;;6332861;28;20293;-71
2023/05/31 17:03:57;;;;;;;3.03;2.13;;;;;;;;;;6332051;28;20582;-71
2023/05/31 17:07:05;;;;;;;5.18;1.70;;;;;;;;;;6333143;28;20289;-71
2023/05/31 17:10:13;;;;;;;3.60;1.33;;;;;;;;;;6332482;28;20301;-71
2023/05/31 17:13:18;;;;;;;3.22;1.13;;;;;;;;;;6311014;28;20301;-72
2023/05/31 17:16:24;;;;;;;3.30;0.90;;;;;;;;;;6307532;28;20606;-72
2023/05/31 17:19:29;;;;;;;1.75;1.15;;;;;;;;;;6307187;28;20563;-72
2023/05/31 17:22:36;;;;;;;1.65;1.08;;;;;;;;;;6307591;28;20281;-71
2023/05/31 17:25:41;;;;;;;5.38;1.25;;;;;;;;;;6308298;28;20305;-72
2023/05/31 17:28:47;;;;;;;2.90;0.90;;;;;;;;;;6333394;28;20305;-72
2023/05/31 17:31:52;;;;;;;2.40;1.13;;;;;;;;;;6315602;28;20294;-72
2023/05/31 17:34:57;;;;;;;2.03;1.02;;;;;;;;;;6333154;28;20289;-73
2023/05/31 17:38:04;;;;;;;2.00;1.08;;;;;;;;;;6332636;28;20290;-73
2023/05/31 17:41:10;;;;;;;5.50;0.98;;;;;;;;;;6333007;28;20590;-72
2023/05/31 17:44:22;;;;;;;2.00;1.38;;;;;;;;;;6334130;28;20295;-72
2023/05/31 17:47:27;;;;;;;2.08;1.15;;;;;;;;;;6338228;28;20585;-72
2023/05/31 17:50:32;;;;;;;1.30;1.23;;;;;;;;;;6336291;28;20297;-72
2023/05/31 17:53:40;;;;;;;1.38;1.33;;;;;;;;;;6337209;28;20479;-72
2023/05/31 17:56:46;;;;;;;1.05;1.05;;;;;;;;;;6338083;28;20298;-73
2023/05/31 17:59:51;;;;;;;3.63;1.00;;;;;;;;;;6337301;28;20291;-73
2023/05/31 18:02:56;;;;;;;4.03;1.02;;;;;;;;;;6337808;28;20289;-72
2023/05/31 18:06:02;;;;;;;3.22;1.20;;;;;;;;;;6337714;28;20302;-72
2023/05/31 18:09:09;;;;;;;1.58;0.80;;;;;;;;;;6322012;28;20293;-72
2023/05/31 18:12:14;;;;;;;1.10;1.08;;;;;;;;;;6323985;28;20298;-71
2023/05/31 18:15:19;;;;;;;4.05;1.00;;;;;;;;;;6312043;28;20302;-72
2023/05/31 18:18:26;;;;;;;2.22;0.90;;;;;;;;;;6312399;28;20302;-71
2023/05/31 18:21:31;;;;;;;8.77;1.02;;;;;;;;;;6312246;28;20294;-71
2023/05/31 18:24:38;;;;;;;4.50;1.02;;;;;;;;;;6311677;28;20294;-72
2023/05/31 18:27:43;;;;;;;1.08;1.08;;;;;;;;;;6312350;28;20294;-72
2023/05/31 18:30:49;;;;;;;2.35;1.10;;;;;;;;;;6312241;28;20290;-72
2023/05/31 18:33:56;;;;;;;1.92;0.90;;;;;;;;;;6311697;28;20294;-72
2023/05/31 18:37:01;;;;;;;2.17;1.00;;;;;;;;;;6312033;28;20294;-72
2023/05/31 18:40:09;;;;;;;0.80;0.80;;;;;;;;;;6311359;28;20295;-71
2023/05/31 18:43:14;;;;;;;0.80;0.80;;;;;;;;;;6311082;28;20294;-70